createdAt,value
2022-11-16T00:02:11.146Z,12.75
2022-11-16T00:04:38.079Z,12.40
2022-11-16T00:07:04.930Z,11.60
2022-11-16T00:09:32.597Z,10.18
2022-11-16T00:12:03.186Z,15.02
2022-11-16T00:14:32.132Z,10.68
2022-11-16T00:16:59.020Z,11.40
2022-11-16T00:19:27.376Z,11.88
2022-11-16T00:21:54.132Z,11.32
2022-11-16T00:24:22.082Z,11.38
2022-11-16T00:26:49.887Z,11.00
2022-11-16T00:29:19.544Z,9.90
2022-11-16T00:34:13.464Z,10.05
2022-11-16T00:36:40.039Z,12.85
2022-11-16T00:39:06.714Z,8.32
2022-11-16T00:41:33.249Z,11.27
2022-11-16T00:43:59.815Z,10.05
2022-11-16T00:46:26.336Z,10.00
2022-11-16T00:48:53.077Z,9.32
2022-11-16T00:51:19.581Z,11.05
2022-11-16T00:53:46.268Z,9.68
2022-11-16T00:56:12.884Z,12.73
2022-11-16T00:58:43.221Z,23.35
2022-11-16T01:01:11.794Z,10.05
2022-11-16T01:03:38.962Z,12.48
2022-11-16T01:06:08.228Z,9.82
2022-11-16T01:08:36.658Z,10.55
2022-11-16T01:11:23.111Z,9.63
2022-11-16T01:13:49.879Z,11.98
2022-11-16T01:16:17.881Z,7.50
2022-11-16T01:18:47.661Z,11.05
2022-11-16T01:21:14.197Z,14.77
2022-11-16T01:23:40.773Z,18.70
2022-11-16T01:26:07.301Z,9.18
2022-11-16T01:28:36.399Z,11.05
2022-11-16T01:31:03.691Z,14.02
2022-11-16T01:33:33.724Z,12.60
2022-11-16T01:36:00.482Z,11.20
2022-11-16T01:38:29.807Z,9.27
2022-11-16T01:40:57.119Z,13.07
2022-11-16T01:43:27.032Z,12.25
2022-11-16T01:46:00.058Z,8.40
2022-11-16T01:48:29.473Z,8.98
2022-11-16T01:50:57.547Z,9.55
2022-11-16T01:53:24.703Z,5.88
2022-11-16T01:55:55.573Z,9.30
2022-11-16T01:58:30.017Z,9.85
2022-11-16T02:01:03.440Z,8.88
2022-11-16T02:03:41.189Z,9.55
2022-11-16T02:06:14.302Z,11.90
2022-11-16T02:09:15.542Z,9.60
2022-11-16T02:12:03.064Z,8.45
2022-11-16T02:14:29.634Z,9.15
2022-11-16T02:17:32.296Z,10.63
2022-11-16T02:20:08.288Z,6.60
2022-11-16T02:23:03.062Z,8.77
2022-11-16T02:25:57.642Z,9.60
2022-11-16T02:28:37.760Z,6.38
2022-11-16T02:31:06.437Z,10.68
2022-11-16T02:33:38.300Z,8.77
2022-11-16T02:36:07.709Z,8.15
2022-11-16T02:38:38.965Z,8.18
2022-11-16T02:41:09.150Z,12.00
2022-11-16T02:43:45.452Z,11.00
2022-11-16T02:46:28.943Z,10.25
2022-11-16T02:48:58.440Z,10.90
2022-11-16T02:51:27.401Z,14.15
2022-11-16T02:54:12.661Z,9.90
2022-11-16T02:56:57.838Z,9.90
2022-11-16T02:59:33.192Z,7.00
2022-11-16T03:02:16.490Z,9.30
2022-11-16T03:04:49.954Z,10.95
2022-11-16T03:07:20.553Z,11.75
2022-11-16T03:09:48.970Z,8.32
2022-11-16T03:12:21.275Z,10.30
2022-11-16T03:14:58.704Z,9.85
2022-11-16T03:17:38.567Z,9.02
2022-11-16T03:20:26.907Z,10.65
2022-11-16T03:23:02.236Z,12.45
2022-11-16T03:25:36.523Z,8.65
2022-11-16T03:28:36.635Z,11.18
2022-11-16T03:31:29.979Z,12.50
2022-11-16T03:34:00.370Z,11.55
2022-11-16T03:36:33.897Z,12.35
2022-11-16T03:39:11.599Z,10.65
2022-11-16T03:41:41.841Z,14.55
2022-11-16T03:44:10.877Z,11.25
2022-11-16T03:46:39.744Z,10.82
2022-11-16T03:49:06.327Z,16.05
2022-11-16T03:51:36.019Z,11.15
2022-11-16T03:54:03.700Z,15.23
2022-11-16T03:56:31.266Z,16.98
2022-11-16T03:58:57.920Z,12.10
2022-11-16T04:01:24.490Z,12.90
2022-11-16T04:03:51.097Z,12.27
2022-11-16T04:06:38.009Z,10.23
2022-11-16T04:09:23.695Z,14.27
2022-11-16T04:12:09.642Z,12.15
2022-11-16T04:14:56.915Z,15.35
2022-11-16T04:17:44.822Z,10.73
2022-11-16T04:20:32.705Z,13.73
2022-11-16T04:23:22.807Z,12.02
2022-11-16T04:25:52.065Z,11.93
2022-11-16T04:28:25.130Z,17.13
2022-11-16T04:31:17.088Z,13.95
2022-11-16T04:34:15.747Z,13.73
2022-11-16T04:37:06.417Z,15.38
2022-11-16T04:39:33.031Z,15.35
2022-11-16T04:42:14.680Z,12.25
2022-11-16T04:45:01.597Z,21.27
2022-11-16T04:47:34.313Z,12.32
2022-11-16T04:50:02.121Z,16.65
2022-11-16T04:52:28.904Z,20.77
2022-11-16T04:54:56.043Z,15.30
2022-11-16T04:57:23.229Z,16.25
2022-11-16T04:59:50.356Z,12.57
2022-11-16T05:02:17.451Z,15.00
2022-11-16T05:04:49.393Z,13.68
2022-11-16T05:07:17.397Z,12.40
2022-11-16T05:09:47.339Z,15.75
2022-11-16T05:12:19.228Z,12.35
2022-11-16T05:14:47.448Z,17.98
2022-11-16T05:17:16.618Z,18.48
2022-11-16T05:20:01.838Z,23.55
2022-11-16T05:22:33.020Z,17.42
2022-11-16T05:25:01.401Z,13.57
2022-11-16T05:27:29.259Z,15.90
2022-11-16T05:29:55.865Z,26.65
2022-11-16T05:32:24.548Z,16.85
2022-11-16T05:34:53.475Z,13.80
2022-11-16T05:37:21.079Z,18.50
2022-11-16T05:39:48.453Z,15.07
2022-11-16T05:42:16.352Z,15.07
2022-11-16T05:44:43.363Z,18.63
2022-11-16T05:47:10.162Z,13.05
2022-11-16T05:49:37.917Z,21.23
2022-11-16T05:52:04.650Z,15.20
2022-11-16T05:54:31.408Z,20.40
2022-11-16T05:56:58.092Z,15.13
2022-11-16T05:59:24.783Z,18.55
2022-11-16T06:01:54.469Z,18.40
2022-11-16T06:04:24.132Z,16.67
2022-11-16T06:06:50.881Z,23.50
2022-11-16T06:09:18.583Z,18.02
2022-11-16T06:11:46.115Z,23.48
2022-11-16T06:14:12.682Z,22.25
2022-11-16T06:16:39.463Z,15.25
2022-11-16T06:19:08.750Z,13.52
2022-11-16T06:21:36.147Z,20.50
2022-11-16T06:24:09.286Z,15.55
2022-11-16T06:26:37.126Z,23.23
2022-11-16T06:29:04.466Z,16.17
2022-11-16T06:31:32.926Z,19.65
2022-11-16T06:34:01.572Z,23.88
2022-11-16T06:36:29.360Z,16.52
2022-11-16T06:38:59.868Z,16.63
2022-11-16T06:41:28.029Z,18.15
2022-11-16T06:43:55.173Z,22.92
2022-11-16T06:46:26.136Z,20.23
2022-11-16T06:48:53.390Z,18.88
2022-11-16T06:51:20.018Z,17.55
2022-11-16T06:53:47.523Z,23.60
2022-11-16T06:56:15.765Z,17.85
2022-11-16T06:58:47.622Z,16.85
2022-11-16T07:01:15.321Z,18.98
2022-11-16T07:03:44.227Z,21.80
2022-11-16T07:06:13.173Z,21.55
2022-11-16T07:08:42.400Z,20.02
2022-11-16T07:11:11.179Z,18.80
2022-11-16T07:13:38.911Z,20.95
2022-11-16T07:16:08.379Z,19.08
2022-11-16T07:18:36.863Z,18.38
2022-11-16T07:21:12.440Z,17.35
2022-11-16T07:23:39.391Z,22.63
2022-11-16T07:26:09.273Z,20.23
2022-11-16T07:28:47.771Z,15.40
2022-11-16T07:31:18.470Z,19.48
2022-11-16T07:33:45.973Z,23.48
2022-11-16T07:36:15.698Z,18.70
2022-11-16T07:38:42.548Z,20.67
2022-11-16T07:41:12.556Z,14.50
2022-11-16T07:43:52.832Z,14.50
2022-11-16T07:49:18.488Z,18.90
2022-11-16T07:51:54.807Z,19.10
2022-11-16T07:54:40.510Z,22.73
2022-11-16T07:57:07.953Z,13.98
2022-11-16T07:59:34.847Z,24.52
2022-11-16T08:02:03.331Z,20.27
2022-11-16T08:04:30.590Z,18.92
2022-11-16T08:06:58.568Z,17.00
2022-11-16T08:09:27.528Z,19.55
2022-11-16T08:11:54.864Z,25.35
2022-11-16T08:14:22.459Z,14.15
2022-11-16T08:16:50.364Z,18.58
2022-11-16T08:19:17.630Z,19.25
2022-11-16T08:21:45.678Z,24.85
2022-11-16T08:26:42.392Z,14.73
2022-11-16T08:31:44.059Z,15.45
2022-11-16T08:34:13.523Z,12.70
2022-11-16T08:36:43.963Z,16.45
2022-11-16T08:39:11.282Z,16.50
2022-11-16T08:41:37.985Z,16.88
2022-11-16T08:46:37.587Z,12.63
2022-11-16T08:49:20.285Z,18.38
2022-11-16T08:51:47.197Z,13.98
2022-11-16T08:54:13.801Z,14.13
2022-11-16T08:56:42.041Z,12.23
2022-11-16T08:59:09.359Z,10.57
2022-11-16T09:01:40.136Z,15.70
2022-11-16T09:04:06.713Z,10.13
2022-11-16T09:06:33.335Z,13.95
2022-11-16T09:09:00.035Z,11.68
2022-11-16T09:11:26.766Z,14.80
2022-11-16T09:13:54.599Z,25.42
2022-11-16T09:16:21.622Z,12.75
2022-11-16T09:18:49.793Z,11.10
2022-11-16T09:21:21.040Z,30.15
2022-11-16T09:23:48.775Z,20.25
2022-11-16T09:26:15.611Z,14.50
2022-11-16T09:28:42.263Z,11.85
2022-11-16T09:31:10.106Z,15.35
2022-11-16T09:33:37.417Z,6.72
2022-11-16T09:36:09.319Z,9.15
2022-11-16T09:39:05.548Z,9.98
2022-11-16T09:42:04.678Z,10.13
2022-11-16T09:44:37.820Z,9.05
2022-11-16T09:47:09.446Z,7.57
2022-11-16T09:49:39.676Z,8.85
2022-11-16T09:52:11.181Z,5.40
2022-11-16T09:54:40.495Z,6.65
2022-11-16T09:57:12.609Z,6.72
2022-11-16T09:59:50.739Z,9.30
2022-11-16T10:02:56.950Z,9.32
2022-11-16T10:05:36.821Z,5.70
2022-11-16T10:08:26.280Z,10.07
2022-11-16T10:11:19.201Z,6.03
2022-11-16T10:14:04.188Z,7.28
2022-11-16T10:17:08.404Z,9.88
2022-11-16T10:19:55.272Z,13.05
2022-11-16T10:22:37.110Z,5.78
2022-11-16T10:25:10.769Z,9.48
2022-11-16T10:27:50.593Z,8.55
2022-11-16T10:30:21.856Z,9.25
2022-11-16T10:33:21.122Z,6.55
2022-11-16T10:35:54.544Z,14.50
2022-11-16T10:38:24.026Z,9.30
2022-11-16T10:40:55.272Z,6.75
2022-11-16T10:43:27.310Z,11.35
2022-11-16T10:46:15.586Z,8.63
2022-11-16T10:48:57.625Z,5.85
2022-11-16T10:51:24.249Z,9.07
2022-11-16T10:53:52.970Z,8.07
2022-11-16T10:56:28.670Z,12.15
2022-11-16T10:58:57.829Z,7.10
2022-11-16T11:01:35.918Z,12.45
2022-11-16T11:04:20.796Z,9.75
2022-11-16T11:06:51.373Z,13.98
2022-11-16T11:09:24.098Z,9.57
2022-11-16T11:12:19.431Z,9.57
2022-11-16T11:15:25.600Z,9.02
2022-11-16T11:18:26.520Z,5.60
2022-11-16T11:21:06.508Z,11.95
2022-11-16T11:23:43.494Z,5.60
2022-11-16T11:26:36.198Z,10.15
2022-11-16T11:29:16.579Z,8.80
2022-11-16T11:31:46.283Z,10.27
2022-11-16T11:34:18.225Z,8.82
2022-11-16T11:37:00.109Z,9.35
2022-11-16T11:39:32.833Z,8.93
2022-11-16T11:42:05.625Z,9.27
2022-11-16T11:44:37.114Z,6.75
2022-11-16T11:50:55.636Z,10.20
2022-11-16T11:53:34.569Z,8.32
2022-11-16T11:56:01.519Z,11.65
2022-11-16T11:58:31.420Z,10.73
2022-11-16T12:01:25.582Z,10.15
2022-11-16T12:04:07.645Z,12.27
2022-11-16T12:07:05.915Z,11.07
2022-11-16T12:10:09.830Z,9.15
2022-11-16T12:12:48.928Z,9.98
2022-11-16T12:15:24.314Z,11.13
2022-11-16T12:18:02.918Z,12.38
2022-11-16T12:21:00.534Z,7.88
2022-11-16T12:23:30.168Z,9.23
2022-11-16T12:28:37.632Z,6.55
2022-11-16T12:31:20.287Z,10.65
2022-11-16T12:34:11.469Z,5.88
2022-11-16T12:37:20.194Z,9.02
2022-11-16T12:40:10.325Z,8.77
2022-11-16T12:42:54.955Z,10.27
2022-11-16T12:45:32.895Z,10.35
2022-11-16T12:48:08.472Z,9.18
2022-11-16T12:50:58.144Z,12.05
2022-11-16T12:53:58.061Z,9.43
2022-11-16T12:56:37.724Z,7.38
2022-11-16T12:59:28.687Z,9.55
2022-11-16T13:02:16.279Z,9.63
2022-11-16T13:04:46.255Z,10.48
2022-11-16T13:07:16.077Z,8.05
2022-11-16T13:12:17.400Z,7.30
2022-11-16T13:14:48.154Z,11.02
2022-11-16T13:17:21.486Z,10.95
2022-11-16T13:20:02.157Z,11.23
2022-11-16T13:22:29.355Z,9.60
2022-11-16T13:25:15.053Z,10.32
2022-11-16T13:27:49.396Z,8.02
2022-11-16T13:30:29.388Z,8.98
2022-11-16T13:33:26.962Z,9.15
2022-11-16T13:35:53.601Z,8.45
2022-11-16T13:38:54.723Z,9.70
2022-11-16T13:41:31.529Z,8.95
2022-11-16T13:43:58.613Z,5.95
2022-11-16T13:49:41.447Z,9.32
2022-11-16T13:52:35.660Z,9.27
2022-11-16T13:54:59.076Z,7.30
2022-11-16T13:57:27.883Z,6.70
2022-11-16T14:00:00.520Z,7.53
2022-11-16T14:02:27.030Z,7.47
2022-11-16T14:05:13.285Z,12.15
2022-11-16T14:07:43.201Z,8.27
2022-11-16T14:10:11.225Z,8.93
2022-11-16T14:12:38.133Z,9.20
2022-11-16T14:15:22.071Z,8.48
2022-11-16T14:18:11.917Z,7.47
2022-11-16T14:20:59.252Z,10.18
2022-11-16T14:23:56.955Z,9.57
2022-11-16T14:26:44.997Z,7.32
2022-11-16T14:29:15.405Z,7.35
2022-11-16T14:31:49.759Z,6.43
2022-11-16T14:34:19.740Z,9.40
2022-11-16T14:36:47.220Z,3.97
2022-11-16T14:39:29.161Z,8.95
2022-11-16T14:41:59.446Z,6.32
2022-11-16T14:44:28.462Z,9.32
2022-11-16T14:46:56.134Z,8.48
2022-11-16T14:49:25.952Z,5.93
2022-11-16T14:51:57.310Z,9.57
2022-11-16T14:54:23.804Z,8.10
2022-11-16T14:57:00.348Z,6.63
2022-11-16T14:59:28.147Z,6.70
2022-11-16T15:01:55.169Z,7.35
2022-11-16T15:04:24.432Z,9.95
2022-11-16T15:07:01.587Z,9.98
2022-11-16T15:09:30.943Z,8.18
2022-11-16T15:12:17.261Z,11.02
2022-11-16T15:14:52.713Z,9.05
2022-11-16T15:17:22.137Z,7.70
2022-11-16T15:20:00.373Z,5.40
2022-11-16T15:22:29.507Z,5.90
2022-11-16T15:25:00.926Z,6.07
2022-11-16T15:27:38.792Z,5.03
2022-11-16T15:30:16.075Z,14.13
2022-11-16T15:32:43.895Z,5.45
2022-11-16T15:35:22.988Z,7.15
2022-11-16T15:38:20.313Z,6.88
2022-11-16T15:40:58.479Z,7.45
2022-11-16T15:43:31.118Z,7.05
2022-11-16T15:45:58.521Z,5.90
2022-11-16T15:48:26.726Z,7.85
2022-11-16T15:51:17.756Z,7.07
2022-11-16T15:53:48.895Z,5.88
2022-11-16T15:56:16.880Z,3.95
2022-11-16T15:58:43.572Z,6.38
2022-11-16T16:01:12.224Z,5.63
2022-11-16T16:03:39.302Z,3.45
2022-11-16T16:06:07.673Z,7.07
2022-11-16T16:08:36.650Z,9.05
2022-11-16T16:11:19.371Z,4.60
2022-11-16T16:14:01.106Z,4.10
2022-11-16T16:16:37.992Z,7.72
2022-11-16T16:19:10.059Z,5.32
2022-11-16T16:21:45.016Z,4.20
2022-11-16T16:24:37.382Z,4.55
2022-11-16T16:27:13.037Z,5.43
2022-11-16T16:29:39.892Z,5.57
2022-11-16T16:32:09.861Z,6.75
2022-11-16T16:34:39.256Z,5.97
2022-11-16T16:37:10.806Z,7.68
2022-11-16T16:39:38.609Z,5.13
2022-11-16T16:42:10.585Z,5.68
2022-11-16T16:44:37.139Z,7.43
2022-11-16T16:47:03.790Z,7.70
2022-11-16T16:49:30.300Z,4.90
2022-11-16T16:51:56.925Z,4.95
2022-11-16T16:54:23.836Z,8.18
2022-11-16T16:56:50.442Z,6.45
2022-11-16T16:59:17.031Z,3.20
2022-11-16T17:01:43.567Z,5.78
2022-11-16T17:04:10.108Z,7.20
2022-11-16T17:06:36.702Z,5.13
2022-11-16T17:09:03.635Z,4.57
2022-11-16T17:11:30.155Z,5.07
2022-11-16T17:13:56.752Z,7.07
2022-11-16T17:16:23.341Z,5.13
2022-11-16T17:18:54.875Z,4.70
2022-11-16T17:21:21.802Z,5.45
2022-11-16T17:23:48.428Z,5.65
2022-11-16T17:26:14.922Z,5.25
2022-11-16T17:28:41.891Z,8.40
2022-11-16T17:31:10.185Z,5.30
2022-11-16T17:33:38.132Z,8.88
2022-11-16T17:36:06.097Z,7.22
2022-11-16T17:38:33.535Z,6.93
2022-11-16T17:41:21.735Z,4.80
2022-11-16T17:43:51.540Z,5.65
2022-11-16T17:48:47.053Z,4.78
2022-11-16T17:51:16.079Z,4.20
2022-11-16T17:53:45.404Z,4.13
2022-11-16T17:56:14.079Z,4.28
2022-11-16T17:58:40.978Z,4.45
2022-11-16T18:01:07.795Z,4.55
2022-11-16T18:03:38.348Z,4.32
2022-11-16T18:06:07.493Z,8.80
2022-11-16T18:08:34.693Z,6.60
2022-11-16T18:11:09.738Z,3.25
2022-11-16T18:13:36.535Z,8.70
2022-11-16T18:16:08.967Z,4.45
2022-11-16T18:18:36.163Z,4.50
2022-11-16T18:21:02.678Z,4.63
2022-11-16T18:23:29.222Z,6.63
2022-11-16T18:25:55.833Z,3.47
2022-11-16T18:28:22.921Z,5.25
2022-11-16T18:30:49.622Z,5.13
2022-11-16T18:33:16.589Z,3.55
2022-11-16T18:35:43.678Z,3.80
2022-11-16T18:38:13.160Z,6.88
2022-11-16T18:40:40.283Z,3.72
2022-11-16T18:43:12.324Z,3.05
2022-11-16T18:45:38.886Z,5.47
2022-11-16T18:48:05.440Z,4.55
2022-11-16T18:50:32.013Z,5.13
2022-11-16T18:52:58.526Z,3.88
2022-11-16T18:55:25.017Z,3.67
2022-11-16T18:57:51.565Z,2.85
2022-11-16T19:00:19.401Z,3.92
2022-11-16T19:02:45.946Z,4.57
2022-11-16T19:05:12.568Z,4.70
2022-11-16T19:07:39.216Z,3.00
2022-11-16T19:10:06.321Z,3.97
2022-11-16T19:12:32.852Z,3.17
2022-11-16T19:14:59.513Z,4.05
2022-11-16T19:17:26.970Z,4.78
2022-11-16T19:19:53.485Z,3.42
2022-11-16T19:22:20.466Z,4.63
2022-11-16T19:24:46.990Z,3.75
2022-11-16T19:27:13.562Z,3.97
2022-11-16T19:29:40.135Z,4.78
2022-11-16T19:32:06.648Z,4.38
2022-11-16T19:34:33.598Z,8.25
2022-11-16T19:37:00.435Z,3.95
2022-11-16T19:39:27.068Z,3.63
2022-11-16T19:41:53.616Z,3.17
2022-11-16T19:44:20.164Z,4.03
2022-11-16T19:46:46.740Z,3.10
2022-11-16T19:49:19.955Z,3.40
2022-11-16T19:51:47.121Z,3.72
2022-11-16T19:54:14.785Z,3.75
2022-11-16T19:56:42.006Z,3.60
2022-11-16T19:59:08.580Z,2.42
2022-11-16T20:01:35.453Z,4.82
2022-11-16T20:04:06.008Z,4.03
2022-11-16T20:06:35.303Z,2.97
2022-11-16T20:11:43.792Z,3.45
2022-11-16T20:14:11.763Z,3.55
2022-11-16T20:16:40.403Z,4.30
2022-11-16T20:19:08.342Z,3.67
2022-11-16T20:21:39.837Z,4.20
2022-11-16T20:24:08.914Z,4.30
2022-11-16T20:26:36.873Z,4.22
2022-11-16T20:29:03.667Z,2.47
2022-11-16T20:31:31.915Z,4.30
2022-11-16T20:33:59.892Z,3.63
2022-11-16T20:36:28.326Z,3.75
2022-11-16T20:38:56.064Z,2.05
2022-11-16T20:41:24.922Z,5.80
2022-11-16T20:43:53.268Z,3.67
2022-11-16T20:46:22.551Z,3.58
2022-11-16T20:48:49.741Z,3.75
2022-11-16T20:51:17.858Z,4.10
2022-11-16T20:53:45.151Z,4.43
2022-11-16T20:56:12.570Z,3.17
2022-11-16T20:58:39.796Z,3.08
2022-11-16T21:01:08.995Z,3.10
2022-11-16T21:03:36.164Z,2.13
2022-11-16T21:06:03.292Z,3.55
2022-11-16T21:08:30.046Z,5.03
2022-11-16T21:10:57.203Z,3.58
2022-11-16T21:13:42.379Z,3.67
2022-11-16T21:16:11.751Z,5.03
2022-11-16T21:18:39.438Z,4.00
2022-11-16T21:21:08.033Z,3.25
2022-11-16T21:23:35.998Z,5.68
2022-11-16T21:26:35.557Z,3.17
2022-11-16T21:29:02.143Z,7.00
2022-11-16T21:31:31.630Z,2.92
2022-11-16T21:34:00.567Z,1.83
2022-11-16T21:36:28.509Z,4.05
2022-11-16T21:38:55.553Z,3.33
2022-11-16T21:41:23.153Z,4.97
2022-11-16T21:43:49.782Z,3.80
2022-11-16T21:46:18.362Z,3.65
2022-11-16T21:48:45.078Z,2.92
2022-11-16T21:51:16.941Z,3.38
2022-11-16T21:53:43.667Z,4.75
2022-11-16T21:56:18.504Z,3.95
2022-11-16T21:58:45.515Z,2.80
2022-11-16T22:01:12.913Z,3.08
2022-11-16T22:03:39.811Z,2.78
2022-11-16T22:06:26.009Z,5.07
2022-11-16T22:08:52.796Z,3.80
2022-11-16T22:11:21.974Z,6.30
2022-11-16T22:13:49.345Z,3.20
2022-11-16T22:16:19.730Z,4.80
2022-11-16T22:18:46.296Z,2.42
2022-11-16T22:21:12.885Z,3.28
2022-11-16T22:23:39.792Z,3.25
2022-11-16T22:26:09.404Z,1.75
2022-11-16T22:28:36.650Z,3.05
2022-11-16T22:31:14.362Z,4.53
2022-11-16T22:33:41.319Z,4.20
2022-11-16T22:36:11.821Z,3.25
2022-11-16T22:38:38.360Z,2.33
2022-11-16T22:41:05.388Z,2.75
2022-11-16T22:43:32.726Z,3.30
2022-11-16T22:46:00.867Z,2.85
2022-11-16T22:48:38.704Z,5.00
2022-11-16T22:51:15.033Z,3.85
2022-11-16T22:53:41.583Z,4.65
2022-11-16T22:56:09.440Z,3.40
2022-11-16T22:58:37.160Z,3.63
2022-11-16T23:01:04.835Z,3.75
2022-11-16T23:03:31.653Z,2.78
2022-11-16T23:05:58.471Z,4.07
2022-11-16T23:08:25.301Z,3.90
2022-11-16T23:11:25.813Z,3.97
2022-11-16T23:14:11.938Z,4.35
2022-11-16T23:16:39.591Z,2.95
2022-11-16T23:19:25.159Z,4.88
2022-11-16T23:22:10.525Z,3.58
2022-11-16T23:24:55.597Z,6.03
2022-11-16T23:27:31.315Z,2.58
2022-11-16T23:29:58.828Z,3.42
2022-11-16T23:32:25.549Z,3.05
2022-11-16T23:34:52.085Z,4.15
2022-11-16T23:37:18.625Z,3.35
2022-11-16T23:39:45.134Z,3.83
2022-11-16T23:42:31.900Z,4.97
2022-11-16T23:44:58.389Z,3.58
2022-11-16T23:47:25.199Z,2.97
2022-11-16T23:50:16.336Z,9.25
2022-11-16T23:52:42.948Z,3.22
2022-11-16T23:55:09.562Z,4.85
2022-11-16T23:57:36.122Z,4.35
